Aviation Digital Data Service (ADDS)

Output produced by METARs form (1715 UTC 29 May 2016)
found at http://aviationweather.gov/adds/metars/
 
METAR text: KBFM 291653Z VRB03KT 10SM CLR 29/19 A3012 RMK AO2 SLP200 T02940194
Conditions at: KBFM (MOBILE/BROOKLEY , AL, US) observed 1653 UTC 29 May 2016
Temperature: 29.4°C (85°F)
Dewpoint: 19.4°C (67°F) [RH = 55%]
Pressure (altimeter): 30.12 inches Hg (1020.1 mb)
[Sea-level pressure: 1020.0 mb]
Winds: variable direction winds at 3 MPH (3 knots; 1.6 m/s)
Visibility: 10 or more miles (16+ km)
Ceiling: at least 12,000 feet AGL
Clouds: sky clear below 12,000 feet AGL
Weather: no significant weather observed at this time